Time;durP1;ratioP1;P1;durP2;ratioP2;P2;SDS_P1;SDS_P2;PMS_P1;PMS_P2;Temp;Humidity;BMP_temperature;BMP_pressure;BME280_temperature;BME280_humidity;BME280_pressure;Samples;Min_cycle;Max_cycle;Signal;HPM_P1;HPM_P2
2023/07/05 00:00:48;;;;;;;3.60;1.88;;;;;;;;;;4999294;28;20027;-74
2023/07/05 00:03:14;;;;;;;4.57;1.83;;;;;;;;;;5000886;28;20030;-74
2023/07/05 00:05:39;;;;;;;4.10;1.55;;;;;;;;;;5001106;28;20030;-73
2023/07/05 00:08:06;;;;;;;2.25;1.55;;;;;;;;;;5000348;28;20022;-73
2023/07/05 00:10:32;;;;;;;3.20;1.80;;;;;;;;;;5000882;28;20034;-74
2023/07/05 00:12:59;;;;;;;3.10;1.60;;;;;;;;;;5000734;28;20026;-73
2023/07/05 00:15:25;;;;;;;3.30;1.70;;;;;;;;;;5000804;28;20077;-74
2023/07/05 00:17:50;;;;;;;2.85;1.73;;;;;;;;;;5000591;28;20037;-72
2023/07/05 00:20:16;;;;;;;3.95;2.20;;;;;;;;;;5000574;28;20034;-73
2023/07/05 00:22:41;;;;;;;7.07;1.88;;;;;;;;;;5000429;28;20027;-74
2023/07/05 00:25:07;;;;;;;2.65;1.50;;;;;;;;;;5000824;28;20269;-74
2023/07/05 00:27:33;;;;;;;3.42;1.88;;;;;;;;;;5000395;28;20246;-71
2023/07/05 00:29:58;;;;;;;3.03;1.58;;;;;;;;;;5000255;28;20034;-74
2023/07/05 00:32:23;;;;;;;2.42;1.63;;;;;;;;;;4999547;28;20046;-74
2023/07/05 00:34:49;;;;;;;2.33;1.48;;;;;;;;;;5000655;28;20238;-74
2023/07/05 00:37:15;;;;;;;5.18;2.10;;;;;;;;;;5000192;28;20093;-71
2023/07/05 00:39:40;;;;;;;4.40;1.85;;;;;;;;;;5000419;28;20226;-74
2023/07/05 00:42:06;;;;;;;2.60;1.38;;;;;;;;;;4999859;28;20033;-74
2023/07/05 00:44:32;;;;;;;6.50;1.73;;;;;;;;;;5000558;28;20019;-74
2023/07/05 00:47:11;;;;;;;2.50;1.60;;;;;;;;;;5000031;28;20022;-74
2023/07/05 00:49:37;;;;;;;2.92;1.80;;;;;;;;;;5000314;28;20098;-74
2023/07/05 00:52:09;;;;;;;4.90;1.98;;;;;;;;;;4999975;28;20049;-74
2023/07/05 00:54:40;;;;;;;3.40;1.90;;;;;;;;;;5000480;28;20102;-73
2023/07/05 00:57:17;;;;;;;3.85;1.90;;;;;;;;;;5000283;28;20093;-73
2023/07/05 01:00:08;;;;;;;2.80;1.65;;;;;;;;;;4999201;28;20314;-73
2023/07/05 01:02:38;;;;;;;2.92;1.80;;;;;;;;;;5000348;28;20038;-72
2023/07/05 01:05:05;;;;;;;3.20;1.77;;;;;;;;;;5000404;28;20321;-74
2023/07/05 01:07:31;;;;;;;3.75;1.75;;;;;;;;;;4998144;28;20314;-73
2023/07/05 01:09:56;;;;;;;3.92;1.75;;;;;;;;;;5000124;28;20054;-74
2023/07/05 01:12:22;;;;;;;3.33;1.65;;;;;;;;;;5000102;28;20034;-74
2023/07/05 01:15:03;;;;;;;4.20;1.60;;;;;;;;;;5000357;28;20046;-74
2023/07/05 01:17:31;;;;;;;4.40;1.77;;;;;;;;;;5000132;28;20127;-71
2023/07/05 01:20:28;;;;;;;5.05;1.67;;;;;;;;;;4999856;28;20042;-74
2023/07/05 01:23:03;;;;;;;2.47;1.52;;;;;;;;;;5003383;28;20042;-74
2023/07/05 01:25:43;;;;;;;5.13;1.67;;;;;;;;;;5000234;28;20342;-72
2023/07/05 01:28:27;;;;;;;2.60;1.60;;;;;;;;;;4998516;28;20046;-74
2023/07/05 01:30:58;;;;;;;3.15;1.63;;;;;;;;;;4999856;28;20261;-73
2023/07/05 01:33:33;;;;;;;3.17;1.58;;;;;;;;;;4999950;28;20046;-75
2023/07/05 01:35:59;;;;;;;5.03;1.50;;;;;;;;;;5000253;28;20030;-74
2023/07/05 01:38:24;;;;;;;5.53;1.63;;;;;;;;;;4999675;28;20033;-74
2023/07/05 01:40:57;;;;;;;3.63;1.98;;;;;;;;;;5000532;28;20057;-74
2023/07/05 01:43:25;;;;;;;3.83;1.67;;;;;;;;;;5003541;28;20034;-68
2023/07/05 01:46:12;;;;;;;2.90;1.60;;;;;;;;;;5003445;28;20222;-73
2023/07/05 01:48:59;;;;;;;3.45;1.88;;;;;;;;;;5001876;28;20030;-73
2023/07/05 01:51:27;;;;;;;2.92;1.50;;;;;;;;;;5003285;28;20022;-74
2023/07/05 01:54:10;;;;;;;3.30;1.67;;;;;;;;;;5002948;28;20315;-74
2023/07/05 01:56:53;;;;;;;2.97;1.80;;;;;;;;;;5003421;28;20093;-74
2023/07/05 01:59:23;;;;;;;4.13;1.52;;;;;;;;;;5003122;28;20041;-73
2023/07/05 02:01:51;;;;;;;4.25;1.98;;;;;;;;;;5000647;28;20087;-70
2023/07/05 02:04:18;;;;;;;3.58;2.00;;;;;;;;;;5002987;28;20098;-69
2023/07/05 02:06:44;;;;;;;2.72;1.70;;;;;;;;;;5002618;28;20034;-73
2023/07/05 02:09:09;;;;;;;2.88;1.65;;;;;;;;;;5002587;28;20034;-74
2023/07/05 02:11:35;;;;;;;3.13;1.55;;;;;;;;;;5003122;28;20061;-70
2023/07/05 02:14:00;;;;;;;4.75;2.03;;;;;;;;;;5000760;28;20528;-74
2023/07/05 02:16:26;;;;;;;2.95;1.70;;;;;;;;;;5003128;28;20397;-74
2023/07/05 02:18:51;;;;;;;2.92;1.55;;;;;;;;;;5002756;28;20041;-74
2023/07/05 02:21:16;;;;;;;3.40;1.90;;;;;;;;;;5002824;28;20081;-72
2023/07/05 02:23:42;;;;;;;2.85;1.50;;;;;;;;;;5002410;28;20226;-73
2023/07/05 02:26:07;;;;;;;3.75;1.70;;;;;;;;;;5002837;28;20315;-73
2023/07/05 02:28:34;;;;;;;3.50;1.98;;;;;;;;;;5002794;28;20030;-74
2023/07/05 02:31:06;;;;;;;3.15;1.80;;;;;;;;;;5002420;28;20034;-70
2023/07/05 02:33:34;;;;;;;3.95;1.90;;;;;;;;;;5002602;28;20050;-73
2023/07/05 02:36:05;;;;;;;3.15;1.80;;;;;;;;;;5002682;28;20030;-75
2023/07/05 02:38:31;;;;;;;3.42;2.03;;;;;;;;;;5002066;28;20037;-69
2023/07/05 02:40:56;;;;;;;3.25;1.60;;;;;;;;;;5002454;28;20035;-71
2023/07/05 02:43:22;;;;;;;2.10;1.38;;;;;;;;;;5002454;28;20050;-73
2023/07/05 02:45:48;;;;;;;3.40;1.67;;;;;;;;;;5002508;28;20267;-74
2023/07/05 02:48:14;;;;;;;4.15;1.67;;;;;;;;;;5002505;28;20310;-74
2023/07/05 02:50:39;;;;;;;3.03;1.80;;;;;;;;;;5002163;28;20080;-68
2023/07/05 02:53:05;;;;;;;2.97;1.60;;;;;;;;;;5001960;28;20069;-73
2023/07/05 02:55:30;;;;;;;2.67;1.52;;;;;;;;;;5001907;28;20222;-72
2023/07/05 02:57:55;;;;;;;2.42;1.45;;;;;;;;;;5002151;28;20101;-74
2023/07/05 03:00:21;;;;;;;2.67;1.58;;;;;;;;;;5001902;28;20387;-74
2023/07/05 03:02:46;;;;;;;2.38;1.40;;;;;;;;;;5002043;28;20065;-73
2023/07/05 03:05:12;;;;;;;3.65;1.40;;;;;;;;;;5001950;28;20093;-74
2023/07/05 03:07:38;;;;;;;3.97;1.63;;;;;;;;;;5001786;28;20046;-71
2023/07/05 03:10:05;;;;;;;3.67;1.83;;;;;;;;;;5001854;28;20056;-74
2023/07/05 03:12:30;;;;;;;3.13;1.92;;;;;;;;;;5000958;28;20110;-74
2023/07/05 03:14:55;;;;;;;3.08;1.65;;;;;;;;;;5001637;28;20042;-74
2023/07/05 03:17:21;;;;;;;2.80;1.80;;;;;;;;;;5001846;28;20032;-73
2023/07/05 03:19:46;;;;;;;2.35;1.60;;;;;;;;;;5001707;28;20056;-74
2023/07/05 03:22:13;;;;;;;3.08;1.63;;;;;;;;;;5001319;28;20026;-74
2023/07/05 03:24:38;;;;;;;3.30;1.88;;;;;;;;;;5000804;28;20069;-74
2023/07/05 03:27:03;;;;;;;3.28;1.65;;;;;;;;;;5000788;28;20023;-74
2023/07/05 03:29:29;;;;;;;3.63;1.70;;;;;;;;;;5001209;28;20030;-73
2023/07/05 03:31:54;;;;;;;5.03;1.75;;;;;;;;;;5001446;28;20030;-73
2023/07/05 03:34:20;;;;;;;3.30;1.42;;;;;;;;;;5001196;28;20054;-74
2023/07/05 03:36:45;;;;;;;4.28;1.90;;;;;;;;;;5001609;28;20061;-74
2023/07/05 03:39:13;;;;;;;3.38;1.80;;;;;;;;;;5001049;28;20022;-73
2023/07/05 03:41:38;;;;;;;3.53;1.58;;;;;;;;;;5001294;28;20224;-74
2023/07/05 03:44:03;;;;;;;3.10;1.70;;;;;;;;;;5001433;28;20089;-73
2023/07/05 03:46:29;;;;;;;4.18;1.60;;;;;;;;;;5001221;28;20023;-74
2023/07/05 03:48:54;;;;;;;3.63;1.55;;;;;;;;;;5001221;28;20061;-74
2023/07/05 03:51:22;;;;;;;3.88;1.48;;;;;;;;;;5000913;28;20080;-73
2023/07/05 03:53:55;;;;;;;3.40;1.70;;;;;;;;;;5000780;28;20061;-71
2023/07/05 03:56:22;;;;;;;2.10;1.25;;;;;;;;;;5001123;28;20050;-74
2023/07/05 03:58:48;;;;;;;2.55;1.42;;;;;;;;;;5000793;28;20026;-73
2023/07/05 04:01:19;;;;;;;2.53;1.30;;;;;;;;;;4999230;28;20116;-74
2023/07/05 04:03:48;;;;;;;3.72;1.70;;;;;;;;;;5000649;28;20026;-74
2023/07/05 04:06:14;;;;;;;3.00;1.40;;;;;;;;;;5000765;28;20414;-74
2023/07/05 04:08:42;;;;;;;3.58;1.60;;;;;;;;;;5000710;28;20330;-74
2023/07/05 04:11:08;;;;;;;2.25;1.38;;;;;;;;;;5000557;28;20231;-74
2023/07/05 04:13:34;;;;;;;2.55;1.30;;;;;;;;;;5000943;28;20034;-74
2023/07/05 04:16:18;;;;;;;2.75;1.40;;;;;;;;;;5000542;28;20030;-68
2023/07/05 04:18:44;;;;;;;3.10;1.38;;;;;;;;;;5000987;28;20042;-67
2023/07/05 04:21:10;;;;;;;3.22;1.58;;;;;;;;;;5000706;28;20203;-74
2023/07/05 04:23:36;;;;;;;3.13;1.73;;;;;;;;;;4999706;28;20306;-75
2023/07/05 04:26:04;;;;;;;3.55;1.40;;;;;;;;;;5000151;28;20064;-73
2023/07/05 04:28:31;;;;;;;2.88;1.67;;;;;;;;;;4999691;28;20342;-74
2023/07/05 04:30:57;;;;;;;3.75;1.83;;;;;;;;;;5000585;28;20203;-73
2023/07/05 04:33:23;;;;;;;5.85;1.50;;;;;;;;;;5000488;28;20425;-75
2023/07/05 04:35:50;;;;;;;4.15;1.77;;;;;;;;;;5000492;28;20049;-75
2023/07/05 04:38:16;;;;;;;5.75;1.67;;;;;;;;;;5000368;28;20089;-74
2023/07/05 04:40:42;;;;;;;1.98;1.27;;;;;;;;;;5000583;28;20037;-74
2023/07/05 04:43:08;;;;;;;3.50;1.42;;;;;;;;;;4999896;28;20133;-75
2023/07/05 04:45:33;;;;;;;3.67;1.40;;;;;;;;;;5000559;28;20019;-75
2023/07/05 04:47:58;;;;;;;3.05;1.58;;;;;;;;;;4999728;28;20030;-72
2023/07/05 04:50:24;;;;;;;2.80;1.60;;;;;;;;;;5014903;28;20109;-74
2023/07/05 04:52:49;;;;;;;4.78;1.60;;;;;;;;;;5000027;28;20039;-74
2023/07/05 04:55:14;;;;;;;3.35;1.60;;;;;;;;;;4999404;28;20080;-74
2023/07/05 04:57:42;;;;;;;5.03;1.50;;;;;;;;;;5000312;28;20281;-74
2023/07/05 05:00:08;;;;;;;2.72;1.60;;;;;;;;;;5000173;28;20144;-73
2023/07/05 05:02:34;;;;;;;2.47;1.42;;;;;;;;;;5000308;28;20026;-72
2023/07/05 05:05:00;;;;;;;2.53;1.38;;;;;;;;;;5000500;28;20222;-74
2023/07/05 05:07:26;;;;;;;3.50;1.67;;;;;;;;;;4999880;28;20232;-75
2023/07/05 05:09:51;;;;;;;6.35;1.80;;;;;;;;;;4998771;28;20046;-74
2023/07/05 05:12:17;;;;;;;6.38;1.35;;;;;;;;;;4999634;28;20430;-74
2023/07/05 05:14:42;;;;;;;2.17;1.55;;;;;;;;;;4999451;28;20030;-75
2023/07/05 05:17:07;;;;;;;4.63;1.30;;;;;;;;;;5002557;28;20246;-73
2023/07/05 05:19:33;;;;;;;4.03;1.80;;;;;;;;;;5004064;28;20030;-74
2023/07/05 05:21:58;;;;;;;4.38;1.50;;;;;;;;;;5003580;28;20036;-75
2023/07/05 05:24:24;;;;;;;3.47;1.60;;;;;;;;;;5004011;28;20030;-74
2023/07/05 05:26:49;;;;;;;3.40;1.45;;;;;;;;;;5003805;28;20030;-74
2023/07/05 05:29:14;;;;;;;3.80;1.85;;;;;;;;;;5004017;28;20309;-72
2023/07/05 05:31:40;;;;;;;3.53;1.55;;;;;;;;;;5003620;28;20030;-74
2023/07/05 05:34:05;;;;;;;2.63;1.40;;;;;;;;;;5003678;28;20046;-74
2023/07/05 05:36:31;;;;;;;2.72;1.58;;;;;;;;;;5002895;28;20030;-71
2023/07/05 05:38:56;;;;;;;2.33;1.20;;;;;;;;;;5003136;28;20084;-67
2023/07/05 05:41:21;;;;;;;3.47;1.52;;;;;;;;;;5003663;28;20057;-68
2023/07/05 05:43:50;;;;;;;4.57;1.45;;;;;;;;;;5003578;28;20026;-73
2023/07/05 05:46:16;;;;;;;5.10;1.90;;;;;;;;;;5003495;28;20031;-73
2023/07/05 05:48:42;;;;;;;3.83;1.60;;;;;;;;;;5003854;28;20062;-74
2023/07/05 05:51:07;;;;;;;2.90;1.33;;;;;;;;;;5003156;28;20041;-74
2023/07/05 05:53:33;;;;;;;3.42;1.67;;;;;;;;;;5000866;28;20436;-74
2023/07/05 05:55:58;;;;;;;3.40;1.67;;;;;;;;;;5003239;28;20033;-69
2023/07/05 05:58:24;;;;;;;3.85;1.42;;;;;;;;;;5003310;28;20030;-69
2023/07/05 06:00:49;;;;;;;2.60;1.40;;;;;;;;;;5003076;28;20059;-75
2023/07/05 06:03:15;;;;;;;4.72;1.80;;;;;;;;;;5003276;28;20021;-74
2023/07/05 06:05:41;;;;;;;3.33;1.63;;;;;;;;;;5016758;28;20373;-73
2023/07/05 06:08:07;;;;;;;2.60;1.60;;;;;;;;;;5002763;28;20479;-74
2023/07/05 06:10:33;;;;;;;5.53;1.48;;;;;;;;;;5003003;28;20034;-70
2023/07/05 06:12:58;;;;;;;4.70;1.50;;;;;;;;;;5002795;28;20404;-74
2023/07/05 06:15:23;;;;;;;5.07;1.65;;;;;;;;;;5002976;28;20082;-74
2023/07/05 06:17:49;;;;;;;3.90;1.83;;;;;;;;;;5002876;28;20034;-75
2023/07/05 06:20:14;;;;;;;4.28;1.70;;;;;;;;;;5003007;28;20026;-75
2023/07/05 06:22:40;;;;;;;4.90;1.88;;;;;;;;;;5002339;28;20026;-75
2023/07/05 06:25:06;;;;;;;2.53;1.50;;;;;;;;;;5002892;28;20105;-72
2023/07/05 06:27:32;;;;;;;2.63;1.50;;;;;;;;;;5002295;28;20026;-73
2023/07/05 06:29:59;;;;;;;2.72;1.52;;;;;;;;;;5002680;28;20033;-74
2023/07/05 06:32:25;;;;;;;1.90;1.10;;;;;;;;;;5002291;28;20034;-74
2023/07/05 06:34:51;;;;;;;4.07;1.80;;;;;;;;;;5001164;28;20080;-73
2023/07/05 06:37:17;;;;;;;2.65;1.27;;;;;;;;;;5002174;28;20026;-74
2023/07/05 06:39:42;;;;;;;2.42;1.33;;;;;;;;;;5002976;28;20090;-74
2023/07/05 06:42:08;;;;;;;3.28;1.42;;;;;;;;;;5002250;28;20038;-73
2023/07/05 06:44:34;;;;;;;2.65;1.40;;;;;;;;;;5002436;28;20034;-74
2023/07/05 06:46:59;;;;;;;2.47;1.45;;;;;;;;;;5001798;28;20030;-74
2023/07/05 06:49:25;;;;;;;2.70;1.13;;;;;;;;;;5002207;28;20065;-69
2023/07/05 06:51:50;;;;;;;3.30;1.60;;;;;;;;;;5001946;28;20296;-75
2023/07/05 06:54:16;;;;;;;3.55;1.20;;;;;;;;;;5001752;28;20054;-71
2023/07/05 06:56:41;;;;;;;2.88;1.27;;;;;;;;;;5002138;28;20090;-69
2023/07/05 06:59:07;;;;;;;2.22;1.20;;;;;;;;;;5001999;28;20034;-74
2023/07/05 07:01:32;;;;;;;2.72;1.27;;;;;;;;;;5002082;28;20092;-75
2023/07/05 07:03:58;;;;;;;2.25;1.38;;;;;;;;;;5000920;28;20100;-70
2023/07/05 07:06:23;;;;;;;3.85;1.30;;;;;;;;;;5001968;28;20321;-74
2023/07/05 07:08:49;;;;;;;2.05;1.00;;;;;;;;;;4999507;28;20661;-74
2023/07/05 07:11:14;;;;;;;2.22;1.00;;;;;;;;;;5000599;28;20073;-74
2023/07/05 07:13:40;;;;;;;2.15;1.27;;;;;;;;;;5000966;28;20023;-74
2023/07/05 07:16:12;;;;;;;2.28;1.23;;;;;;;;;;5001708;28;20022;-74
2023/07/05 07:18:38;;;;;;;3.28;1.10;;;;;;;;;;5001464;28;20030;-74
2023/07/05 07:21:11;;;;;;;2.53;0.98;;;;;;;;;;5001811;28;20073;-75
2023/07/05 07:23:37;;;;;;;1.90;1.00;;;;;;;;;;5001198;28;20030;-74
2023/07/05 07:26:08;;;;;;;3.53;1.15;;;;;;;;;;5000600;28;20030;-74
2023/07/05 07:28:34;;;;;;;1.98;0.90;;;;;;;;;;5001393;28;20065;-75
2023/07/05 07:31:12;;;;;;;3.20;1.15;;;;;;;;;;4997106;28;20302;-74
2023/07/05 07:33:38;;;;;;;4.18;0.68;;;;;;;;;;5001364;28;20096;-74
2023/07/05 07:36:12;;;;;;;1.20;0.80;;;;;;;;;;5001637;28;20386;-74
2023/07/05 07:38:39;;;;;;;1.45;0.88;;;;;;;;;;5000316;28;20018;-74
2023/07/05 07:41:04;;;;;;;1.77;1.10;;;;;;;;;;5001205;28;20226;-74
2023/07/05 07:43:29;;;;;;;1.40;0.80;;;;;;;;;;5001162;28;20022;-74
2023/07/05 07:45:55;;;;;;;4.90;1.17;;;;;;;;;;5001453;28;20033;-75
2023/07/05 07:48:20;;;;;;;1.35;0.60;;;;;;;;;;5001338;28;20253;-75
2023/07/05 07:50:50;;;;;;;2.65;0.80;;;;;;;;;;5001001;28;20037;-71
2023/07/05 07:53:16;;;;;;;1.05;0.68;;;;;;;;;;5000708;28;20030;-70
2023/07/05 07:55:41;;;;;;;2.50;0.88;;;;;;;;;;5001186;28;20022;-74
2023/07/05 07:58:07;;;;;;;2.70;0.70;;;;;;;;;;4999822;28;20054;-74
2023/07/05 08:00:34;;;;;;;2.83;0.73;;;;;;;;;;5001152;28;20094;-74
2023/07/05 08:02:59;;;;;;;3.50;0.77;;;;;;;;;;5000432;28;20022;-74
2023/07/05 08:05:24;;;;;;;1.95;0.63;;;;;;;;;;5001054;28;20058;-70
2023/07/05 08:07:50;;;;;;;0.88;0.63;;;;;;;;;;5000501;28;20029;-74
2023/07/05 08:10:16;;;;;;;0.90;0.65;;;;;;;;;;5000808;28;20036;-75
2023/07/05 08:12:41;;;;;;;1.13;0.75;;;;;;;;;;5000684;28;20018;-74
2023/07/05 08:15:07;;;;;;;1.98;0.57;;;;;;;;;;4999712;28;20241;-74
2023/07/05 08:17:34;;;;;;;2.30;0.60;;;;;;;;;;5000734;28;20323;-75
2023/07/05 08:20:00;;;;;;;1.10;0.63;;;;;;;;;;5000599;28;20062;-74
2023/07/05 08:22:25;;;;;;;1.42;0.70;;;;;;;;;;4999131;28;20030;-74
2023/07/05 08:24:51;;;;;;;2.70;0.80;;;;;;;;;;5000422;28;20022;-69
2023/07/05 08:27:16;;;;;;;1.85;0.80;;;;;;;;;;5000752;28;20053;-71
2023/07/05 08:29:41;;;;;;;1.83;0.73;;;;;;;;;;4999428;28;20056;-74
2023/07/05 08:32:07;;;;;;;1.42;0.68;;;;;;;;;;4999950;28;20026;-75
2023/07/05 08:34:32;;;;;;;3.10;0.82;;;;;;;;;;5000299;28;20054;-75
2023/07/05 08:36:58;;;;;;;1.85;0.85;;;;;;;;;;5000346;28;20030;-74
2023/07/05 08:39:23;;;;;;;1.63;0.82;;;;;;;;;;5000540;28;20302;-74
2023/07/05 08:42:21;;;;;;;2.50;0.80;;;;;;;;;;5000737;28;20036;-74
2023/07/05 08:44:59;;;;;;;1.75;0.68;;;;;;;;;;5001121;28;20101;-74
2023/07/05 08:47:48;;;;;;;1.77;0.80;;;;;;;;;;5000537;28;20038;-74
2023/07/05 08:50:24;;;;;;;1.13;0.70;;;;;;;;;;5001541;28;20081;-69
2023/07/05 08:52:54;;;;;;;2.17;0.90;;;;;;;;;;5004066;28;20061;-74
2023/07/05 08:55:46;;;;;;;3.70;1.20;;;;;;;;;;5004512;28;20030;-75
2023/07/05 08:58:17;;;;;;;1.38;0.77;;;;;;;;;;5004454;28;20266;-74
2023/07/05 09:00:50;;;;;;;1.35;0.70;;;;;;;;;;5004145;28;20117;-75
2023/07/05 09:03:15;;;;;;;0.93;0.60;;;;;;;;;;5004337;28;20030;-72
2023/07/05 09:05:52;;;;;;;2.08;0.88;;;;;;;;;;5004267;28;20073;-75
2023/07/05 09:08:35;;;;;;;1.23;0.50;;;;;;;;;;5000747;28;20033;-72
2023/07/05 09:11:09;;;;;;;1.42;0.88;;;;;;;;;;5004307;28;20053;-75
2023/07/05 09:13:40;;;;;;;1.40;0.70;;;;;;;;;;5003363;28;20038;-74
2023/07/05 09:16:25;;;;;;;0.77;0.60;;;;;;;;;;5004257;28;20088;-74
2023/07/05 09:18:53;;;;;;;4.78;0.80;;;;;;;;;;5004103;28;20022;-73
2023/07/05 09:21:40;;;;;;;2.72;0.85;;;;;;;;;;5003988;28;20081;-71
2023/07/05 09:24:26;;;;;;;1.83;0.70;;;;;;;;;;5003436;28;20383;-73
2023/07/05 09:27:13;;;;;;;1.85;0.80;;;;;;;;;;5004086;28;20037;-75
2023/07/05 09:29:44;;;;;;;2.85;0.85;;;;;;;;;;5003699;28;20034;-74
2023/07/05 09:32:17;;;;;;;1.75;0.52;;;;;;;;;;5004056;28;20030;-74
2023/07/05 09:34:50;;;;;;;1.83;0.50;;;;;;;;;;5003627;28;20352;-74
2023/07/05 09:37:26;;;;;;;2.58;0.70;;;;;;;;;;5003482;28;20022;-75
2023/07/05 09:40:19;;;;;;;2.03;0.73;;;;;;;;;;5018410;28;20101;-74
2023/07/05 09:42:51;;;;;;;2.10;0.70;;;;;;;;;;5003651;28;20034;-74
2023/07/05 09:45:17;;;;;;;2.35;0.88;;;;;;;;;;5003496;28;20026;-74
2023/07/05 09:47:46;;;;;;;1.17;0.80;;;;;;;;;;5018254;28;20045;-74
2023/07/05 09:50:18;;;;;;;1.65;0.75;;;;;;;;;;5003518;28;20114;-75
2023/07/05 09:52:59;;;;;;;0.93;0.60;;;;;;;;;;5003038;28;20422;-71
2023/07/05 09:55:27;;;;;;;1.23;0.77;;;;;;;;;;5003233;28;20048;-74
2023/07/05 09:57:53;;;;;;;2.25;1.10;;;;;;;;;;5003421;28;20036;-74
2023/07/05 10:00:31;;;;;;;1.25;0.70;;;;;;;;;;5018319;28;20030;-75
2023/07/05 10:03:05;;;;;;;1.52;0.70;;;;;;;;;;5002345;28;20026;-74
2023/07/05 10:05:30;;;;;;;1.98;0.90;;;;;;;;;;5001362;28;20026;-74
2023/07/05 10:07:58;;;;;;;1.60;0.70;;;;;;;;;;5003001;28;20038;-73
2023/07/05 10:10:33;;;;;;;1.20;0.80;;;;;;;;;;5002969;28;20042;-73
2023/07/05 10:13:19;;;;;;;2.05;0.80;;;;;;;;;;5003179;28;20030;-74
2023/07/05 10:15:50;;;;;;;1.58;0.60;;;;;;;;;;5002837;28;20057;-74
2023/07/05 10:18:40;;;;;;;1.25;0.68;;;;;;;;;;5002152;28;20121;-71
2023/07/05 10:21:30;;;;;;;1.65;0.77;;;;;;;;;;5002919;28;20053;-74
2023/07/05 10:23:58;;;;;;;2.15;0.82;;;;;;;;;;5002632;28;20429;-74
2023/07/05 10:26:24;;;;;;;0.90;0.63;;;;;;;;;;5002816;28;20034;-73
2023/07/05 10:28:50;;;;;;;2.60;0.75;;;;;;;;;;5002813;28;20080;-75
2023/07/05 10:31:30;;;;;;;1.13;0.77;;;;;;;;;;5001509;28;20088;-75
2023/07/05 10:34:15;;;;;;;2.28;0.80;;;;;;;;;;5000157;28;20042;-74
2023/07/05 10:36:45;;;;;;;1.45;0.80;;;;;;;;;;5002686;28;20042;-73
2023/07/05 10:39:10;;;;;;;0.93;0.60;;;;;;;;;;5002243;28;20037;-74
2023/07/05 10:41:37;;;;;;;1.33;0.80;;;;;;;;;;5000422;28;20093;-74
2023/07/05 10:44:10;;;;;;;1.50;0.80;;;;;;;;;;5002283;28;20026;-68
2023/07/05 10:46:37;;;;;;;1.02;0.77;;;;;;;;;;5002537;28;20034;-69
2023/07/05 10:49:06;;;;;;;2.00;0.57;;;;;;;;;;5001131;28;20096;-70
2023/07/05 10:51:40;;;;;;;1.30;0.88;;;;;;;;;;5002525;28;20050;-74
2023/07/05 10:54:24;;;;;;;1.60;0.80;;;;;;;;;;5001974;28;20315;-75
2023/07/05 10:56:50;;;;;;;2.38;0.90;;;;;;;;;;4999239;28;20030;-74
2023/07/05 10:59:43;;;;;;;1.63;0.73;;;;;;;;;;5001283;28;20050;-74
2023/07/05 11:02:11;;;;;;;1.65;0.70;;;;;;;;;;5002406;28;20099;-74
2023/07/05 11:04:40;;;;;;;1.45;0.80;;;;;;;;;;5001936;28;20022;-74
2023/07/05 11:07:10;;;;;;;1.08;0.65;;;;;;;;;;5001773;28;20050;-74
2023/07/05 11:09:37;;;;;;;1.77;0.93;;;;;;;;;;5002086;28;20273;-72
2023/07/05 11:12:10;;;;;;;1.40;0.80;;;;;;;;;;5000707;28;20046;-68
2023/07/05 11:14:36;;;;;;;1.63;0.90;;;;;;;;;;5000753;28;20045;-75
2023/07/05 11:17:03;;;;;;;2.75;0.80;;;;;;;;;;5000393;28;20030;-75
2023/07/05 11:19:30;;;;;;;0.90;0.52;;;;;;;;;;5001756;28;20033;-72
2023/07/05 11:21:58;;;;;;;1.40;0.85;;;;;;;;;;5000976;28;20034;-75
2023/07/05 11:24:38;;;;;;;1.83;0.55;;;;;;;;;;5000164;28;20049;-70
2023/07/05 11:27:29;;;;;;;1.35;0.70;;;;;;;;;;4998334;28;20046;-74
2023/07/05 11:29:55;;;;;;;0.85;0.60;;;;;;;;;;5003107;28;20038;-74
2023/07/05 11:32:23;;;;;;;1.33;0.65;;;;;;;;;;5001714;28;20025;-75
2023/07/05 11:34:52;;;;;;;1.38;0.88;;;;;;;;;;5001423;28;20042;-74
2023/07/05 11:37:38;;;;;;;3.03;0.68;;;;;;;;;;5000344;28;20052;-75
2023/07/05 11:40:05;;;;;;;0.90;0.70;;;;;;;;;;4998291;28;20104;-74
2023/07/05 11:42:30;;;;;;;2.55;0.50;;;;;;;;;;5001483;28;20018;-75
2023/07/05 11:45:05;;;;;;;2.03;0.90;;;;;;;;;;5001256;28;20122;-74
2023/07/05 11:47:33;;;;;;;2.25;0.80;;;;;;;;;;5001462;28;20046;-75
2023/07/05 11:50:01;;;;;;;1.40;0.70;;;;;;;;;;5000480;28;20065;-74
2023/07/05 11:52:33;;;;;;;2.30;0.80;;;;;;;;;;5000798;28;20033;-74
2023/07/05 11:55:11;;;;;;;0.88;0.70;;;;;;;;;;4999269;28;20032;-74
2023/07/05 11:57:44;;;;;;;1.40;0.70;;;;;;;;;;4999632;28;20038;-71
2023/07/05 12:00:18;;;;;;;3.53;0.70;;;;;;;;;;4999602;28;20035;-74
2023/07/05 12:03:18;;;;;;;1.30;0.70;;;;;;;;;;5001050;28;20030;-73
2023/07/05 12:05:44;;;;;;;0.82;0.60;;;;;;;;;;5009967;28;20061;-71
2023/07/05 12:08:21;;;;;;;0.80;0.50;;;;;;;;;;5000786;28;20038;-74
2023/07/05 12:11:00;;;;;;;0.70;0.52;;;;;;;;;;5000771;28;20048;-67
2023/07/05 12:13:31;;;;;;;2.33;0.70;;;;;;;;;;5000954;28;20034;-75
2023/07/05 12:15:57;;;;;;;3.30;0.65;;;;;;;;;;5000677;28;20030;-74
2023/07/05 12:18:24;;;;;;;1.80;0.60;;;;;;;;;;5001060;28;20065;-74
2023/07/05 12:20:54;;;;;;;1.55;0.90;;;;;;;;;;5000848;28;20318;-74
2023/07/05 12:23:21;;;;;;;1.33;0.60;;;;;;;;;;5000557;28;20222;-72
2023/07/05 12:25:57;;;;;;;2.38;0.60;;;;;;;;;;4998403;28;20057;-75
2023/07/05 12:28:28;;;;;;;1.90;0.75;;;;;;;;;;5000739;28;20026;-69
2023/07/05 12:31:12;;;;;;;1.08;0.45;;;;;;;;;;5000946;28;20346;-73
2023/07/05 12:33:38;;;;;;;0.93;0.70;;;;;;;;;;5000305;28;20353;-74
2023/07/05 12:36:15;;;;;;;1.30;0.68;;;;;;;;;;5000284;28;20046;-74
2023/07/05 12:38:44;;;;;;;1.08;0.57;;;;;;;;;;5000419;28;20037;-74
2023/07/05 12:41:20;;;;;;;1.75;0.80;;;;;;;;;;5000360;28;20030;-74
2023/07/05 12:43:48;;;;;;;2.33;0.70;;;;;;;;;;4997992;28;20113;-74
2023/07/05 12:46:22;;;;;;;1.70;0.60;;;;;;;;;;5000282;28;20030;-75
2023/07/05 12:48:49;;;;;;;1.50;0.70;;;;;;;;;;5000699;28;20318;-74
2023/07/05 12:51:14;;;;;;;1.25;0.60;;;;;;;;;;4998288;28;20033;-74
2023/07/05 12:53:40;;;;;;;5.20;0.55;;;;;;;;;;5000086;28;20030;-74
2023/07/05 12:56:10;;;;;;;2.33;0.60;;;;;;;;;;4995476;28;20026;-74
2023/07/05 12:58:38;;;;;;;1.10;0.75;;;;;;;;;;5000507;28;20030;-75
2023/07/05 13:01:04;;;;;;;0.45;0.40;;;;;;;;;;5000593;28;20068;-75
2023/07/05 13:03:31;;;;;;;0.75;0.60;;;;;;;;;;5000584;28;20208;-75
2023/07/05 13:05:57;;;;;;;2.22;0.82;;;;;;;;;;5000105;28;20023;-74
2023/07/05 13:08:24;;;;;;;2.25;0.60;;;;;;;;;;4999982;28;20037;-74
2023/07/05 13:10:51;;;;;;;4.13;0.73;;;;;;;;;;5000301;28;20109;-75
2023/07/05 13:13:32;;;;;;;1.45;0.60;;;;;;;;;;4999666;28;20425;-73
2023/07/05 13:16:42;;;;;;;1.88;0.57;;;;;;;;;;4998676;28;20022;-70
2023/07/05 13:19:09;;;;;;;0.93;0.50;;;;;;;;;;5001808;28;20322;-75
2023/07/05 13:21:45;;;;;;;3.05;0.50;;;;;;;;;;4998990;28;20054;-75
2023/07/05 13:24:32;;;;;;;0.88;0.47;;;;;;;;;;4999547;28;20587;-74
2023/07/05 13:26:58;;;;;;;0.82;0.55;;;;;;;;;;4999267;28;20133;-74
2023/07/05 13:29:33;;;;;;;1.02;0.50;;;;;;;;;;5000114;28;20026;-73
2023/07/05 13:31:59;;;;;;;0.60;0.40;;;;;;;;;;4999006;28;20195;-75
2023/07/05 13:34:26;;;;;;;1.08;0.52;;;;;;;;;;4999917;28;20460;-74
2023/07/05 13:37:00;;;;;;;1.00;0.60;;;;;;;;;;4998007;28;20030;-74
2023/07/05 13:39:25;;;;;;;0.35;0.35;;;;;;;;;;5003716;28;20093;-72
2023/07/05 13:41:52;;;;;;;0.80;0.45;;;;;;;;;;5000841;28;20034;-75
2023/07/05 13:44:19;;;;;;;0.93;0.60;;;;;;;;;;5002357;28;20034;-74
2023/07/05 13:46:46;;;;;;;2.47;0.60;;;;;;;;;;5001662;28;20025;-72
2023/07/05 13:49:12;;;;;;;0.70;0.47;;;;;;;;;;5002736;28;20311;-74
2023/07/05 13:51:46;;;;;;;0.60;0.45;;;;;;;;;;5003333;28;20033;-74
2023/07/05 13:54:12;;;;;;;1.45;0.60;;;;;;;;;;5001559;28;20037;-75
2023/07/05 13:56:38;;;;;;;1.65;0.50;;;;;;;;;;5003034;28;20038;-75
2023/07/05 13:59:04;;;;;;;0.90;0.50;;;;;;;;;;5003318;28;20027;-71
2023/07/05 14:01:33;;;;;;;1.58;0.70;;;;;;;;;;5002571;28;20065;-74
2023/07/05 14:03:58;;;;;;;0.95;0.60;;;;;;;;;;5001491;28;20146;-74
2023/07/05 14:06:25;;;;;;;1.63;0.50;;;;;;;;;;5002150;28;20042;-74
2023/07/05 14:08:51;;;;;;;0.60;0.40;;;;;;;;;;5002267;28;20045;-74
2023/07/05 14:11:21;;;;;;;1.00;0.50;;;;;;;;;;5002975;28;20034;-75
2023/07/05 14:13:47;;;;;;;1.07;0.60;;;;;;;;;;5003188;28;20023;-74
2023/07/05 14:16:14;;;;;;;1.00;0.45;;;;;;;;;;5002974;28;20336;-75
2023/07/05 14:18:40;;;;;;;1.48;0.60;;;;;;;;;;5002431;28;20231;-74
2023/07/05 14:21:18;;;;;;;0.45;0.38;;;;;;;;;;5002960;28;20036;-73
2023/07/05 14:23:45;;;;;;;0.52;0.40;;;;;;;;;;5002659;28;20030;-74
2023/07/05 14:26:10;;;;;;;0.77;0.55;;;;;;;;;;5002838;28;20333;-72
2023/07/05 14:28:36;;;;;;;0.40;0.40;;;;;;;;;;5002961;28;20049;-74
2023/07/05 14:31:02;;;;;;;0.60;0.52;;;;;;;;;;5001036;28;20086;-73
2023/07/05 14:33:27;;;;;;;0.60;0.40;;;;;;;;;;5002660;28;20046;-74
2023/07/05 14:35:53;;;;;;;0.90;0.50;;;;;;;;;;5002497;28;20026;-74
2023/07/05 14:38:19;;;;;;;3.55;0.70;;;;;;;;;;5000395;28;20118;-74
2023/07/05 14:40:47;;;;;;;1.45;0.55;;;;;;;;;;5001174;28;20026;-74
2023/07/05 14:43:13;;;;;;;1.25;0.65;;;;;;;;;;5002279;28;20045;-75
2023/07/05 14:45:40;;;;;;;1.38;0.60;;;;;;;;;;5001416;28;20088;-74
2023/07/05 14:48:06;;;;;;;1.25;0.70;;;;;;;;;;5000599;28;20022;-75
2023/07/05 14:50:33;;;;;;;0.65;0.45;;;;;;;;;;5002524;28;20226;-75
2023/07/05 14:53:01;;;;;;;1.23;0.60;;;;;;;;;;5002042;28;20030;-74
2023/07/05 14:55:28;;;;;;;0.95;0.63;;;;;;;;;;5002734;28;20023;-74